Time;durP1;ratioP1;P1;durP2;ratioP2;P2;SDS_P1;SDS_P2;PMS_P1;PMS_P2;Temp;Humidity;BMP_temperature;BMP_pressure;BME280_temperature;BME280_humidity;BME280_pressure;Samples;Min_cycle;Max_cycle;Signal;HPM_P1;HPM_P2
2022/03/08 00:01:37;;;;;;;48.00;26.10;;;;;;;0.55;59.88;99283.05;106214;1274;97871;-68
2022/03/08 00:04:08;;;;;;;50.40;26.50;;;;;;;0.55;59.96;99282.54;106186;1274;108316;-70
2022/03/08 00:06:37;;;;;;;48.60;26.10;;;;;;;0.53;59.93;99286.09;106155;1274;97227;-67
2022/03/08 00:09:09;;;;;;;44.20;24.30;;;;;;;0.50;60.00;99285.46;106148;1275;97823;-67
2022/03/08 00:11:39;;;;;;;43.70;25.50;;;;;;;0.48;60.04;99291.63;106132;1274;111470;-66
2022/03/08 00:14:07;;;;;;;47.20;26.00;;;;;;;0.47;60.12;99292.36;106133;1274;95269;-67
2022/03/08 00:16:36;;;;;;;49.50;26.40;;;;;;;0.45;60.20;99293.63;106136;1274;108406;-66
2022/03/08 00:19:07;;;;;;;48.10;25.40;;;;;;;0.43;60.27;99294.36;106198;1273;98529;-68
2022/03/08 00:21:36;;;;;;;47.80;25.40;;;;;;;0.43;60.21;99294.71;106202;1274;97964;-67
2022/03/08 00:24:08;;;;;;;51.80;28.40;;;;;;;0.42;60.33;99291.07;106099;1274;111972;-67
2022/03/08 00:26:35;;;;;;;52.80;29.60;;;;;;;0.41;60.40;99291.13;106083;1274;97653;-67
2022/03/08 00:29:05;;;;;;;48.60;25.00;;;;;;;0.39;60.60;99288.73;106024;1274;107237;-67
2022/03/08 00:31:35;;;;;;;48.80;25.30;;;;;;;0.35;60.43;99290.40;106130;1274;97877;-66
2022/03/08 00:34:07;;;;;;;49.50;26.50;;;;;;;0.34;60.49;99289.05;106166;1274;95425;-69
2022/03/08 00:36:37;;;;;;;56.20;30.10;;;;;;;0.33;60.51;99283.50;106068;1274;111488;-67
2022/03/08 00:39:07;;;;;;;51.90;27.60;;;;;;;0.30;60.46;99287.76;106021;1274;98015;-69
2022/03/08 00:41:35;;;;;;;56.60;28.80;;;;;;;0.27;60.48;99294.12;106124;1274;108114;-69
2022/03/08 00:44:07;;;;;;;54.50;28.10;;;;;;;0.27;60.79;99296.73;106136;1274;97941;-68
2022/03/08 00:46:37;;;;;;;47.20;26.50;;;;;;;0.28;60.72;99299.46;106140;1274;98022;-69
2022/03/08 00:49:08;;;;;;;49.50;27.80;;;;;;;0.32;60.82;99293.44;106035;1276;111893;-69
2022/03/08 00:51:38;;;;;;;49.70;27.60;;;;;;;0.35;60.73;99292.85;106135;1274;97743;-68
2022/03/08 00:54:06;;;;;;;52.50;26.20;;;;;;;0.36;60.89;99288.63;106031;1275;108006;-69
2022/03/08 00:56:34;;;;;;;46.20;23.80;;;;;;;0.35;60.75;99282.90;106141;1274;98064;-70
2022/03/08 00:59:05;;;;;;;53.30;25.60;;;;;;;0.33;60.85;99281.23;106128;1274;97838;-69
2022/03/08 01:01:34;;;;;;;52.40;27.70;;;;;;;0.33;61.00;99283.83;106035;1274;109145;-69
2022/03/08 01:04:06;;;;;;;51.00;27.40;;;;;;;0.33;60.96;99291.67;106170;1274;97278;-67
2022/03/08 01:06:36;;;;;;;49.50;26.90;;;;;;;0.35;61.08;99289.54;106106;1274;108358;-67
2022/03/08 01:09:07;;;;;;;57.80;29.90;;;;;;;0.35;60.98;99295.48;106152;1274;98053;-68
2022/03/08 01:11:36;;;;;;;52.70;27.50;;;;;;;0.32;60.98;99289.08;106156;1274;97873;-69
2022/03/08 01:14:10;;;;;;;55.50;27.60;;;;;;;0.27;61.10;99291.66;106146;1274;111383;-67
2022/03/08 01:16:40;;;;;;;52.80;28.20;;;;;;;0.25;61.07;99286.31;106175;1273;98066;-68
2022/03/08 01:19:10;;;;;;;59.80;28.80;;;;;;;0.21;61.06;99289.04;106022;1274;108781;-67
2022/03/08 01:21:38;;;;;;;54.60;28.90;;;;;;;0.19;61.16;99284.91;106176;1274;96585;-66
2022/03/08 01:24:08;;;;;;;58.00;28.80;;;;;;;0.18;61.30;99285.11;106004;1274;97822;-69
2022/03/08 01:26:38;;;;;;;54.50;30.70;;;;;;;0.17;61.33;99283.91;106138;1274;112133;-67
2022/03/08 01:29:08;;;;;;;53.20;28.70;;;;;;;0.16;61.41;99285.87;106067;1274;97909;-67
2022/03/08 01:31:38;;;;;;;57.10;28.40;;;;;;;0.16;61.38;99287.44;106040;1274;107836;-68
2022/03/08 01:34:06;;;;;;;59.10;30.50;;;;;;;0.14;61.36;99279.98;106018;1274;95264;-68
2022/03/08 01:36:36;;;;;;;58.00;29.10;;;;;;;0.09;61.43;99276.44;106152;1274;97986;-67
2022/03/08 01:39:06;;;;;;;50.00;27.40;;;;;;;0.09;61.55;99270.52;106130;1274;111894;-66
2022/03/08 01:41:36;;;;;;;56.30;29.20;;;;;;;0.09;61.52;99268.60;105986;1274;97895;-68
2022/03/08 01:44:09;;;;;;;52.50;29.90;;;;;;;0.08;61.50;99266.33;106051;1274;108225;-68
2022/03/08 01:46:40;;;;;;;52.10;28.00;;;;;;;0.06;61.51;99270.06;106089;1274;97889;-65
2022/03/08 01:49:08;;;;;;;54.20;29.10;;;;;;;0.03;61.62;99268.20;106132;1274;97892;-67
2022/03/08 01:51:42;;;;;;;53.40;29.50;;;;;;;0.00;61.60;99271.78;106123;1274;112012;-68
2022/03/08 01:54:12;;;;;;;61.60;31.50;;;;;;;-0.02;61.57;99277.45;106096;1274;95254;-67
2022/03/08 01:56:43;;;;;;;55.70;30.20;;;;;;;-0.06;61.65;99273.84;106122;1274;108921;-68
2022/03/08 01:59:11;;;;;;;51.40;29.30;;;;;;;-0.09;61.78;99270.63;106115;1274;97972;-66
2022/03/08 02:01:43;;;;;;;59.00;30.20;;;;;;;-0.12;61.84;99272.80;106146;1274;97857;-66
2022/03/08 02:04:12;;;;;;;62.40;30.30;;;;;;;-0.12;61.77;99276.32;106076;1274;111397;-67
2022/03/08 02:06:45;;;;;;;49.40;28.40;;;;;;;-0.16;61.85;99277.77;106088;1274;95213;-68
2022/03/08 02:09:15;;;;;;;54.20;28.60;;;;;;;-0.17;61.95;99281.45;106085;1274;107731;-69
2022/03/08 02:11:46;;;;;;;52.40;30.00;;;;;;;-0.15;61.89;99282.98;106084;1274;98092;-68
2022/03/08 02:14:17;;;;;;;58.90;29.40;;;;;;;-0.14;61.83;99283.48;106076;1274;97877;-69
2022/03/08 02:16:47;;;;;;;55.60;30.70;;;;;;;-0.12;62.00;99280.98;106136;1274;111409;-71
2022/03/08 02:19:16;;;;;;;54.00;28.00;;;;;;;-0.10;62.12;99279.56;106099;1274;97851;-68
2022/03/08 02:21:49;;;;;;;58.20;29.50;;;;;;;-0.07;62.25;99280.15;106041;1274;108886;-69
2022/03/08 02:24:19;;;;;;;56.70;30.10;;;;;;;-0.03;62.18;99280.25;106100;1274;95376;-68
2022/03/08 02:26:50;;;;;;;53.60;29.00;;;;;;;0.01;62.41;99275.95;106094;1274;96495;-67
2022/03/08 02:29:20;;;;;;;54.50;29.80;;;;;;;0.00;62.38;99279.48;106168;1274;111394;-67
2022/03/08 02:31:48;;;;;;;55.20;28.90;;;;;;;-0.00;62.46;99278.42;106102;1274;97952;-67
2022/03/08 02:34:18;;;;;;;60.10;31.20;;;;;;;-0.00;62.39;99278.27;106061;1274;108303;-71
2022/03/08 02:37:06;;;;;;;54.10;31.10;;;;;;;0.00;62.46;99281.75;106062;1274;95286;-68
2022/03/08 02:39:39;;;;;;;55.90;29.80;;;;;;;-0.01;62.44;99278.45;106071;1274;97920;-66
2022/03/08 02:42:08;;;;;;;52.80;28.40;;;;;;;-0.02;62.49;99277.95;106084;1274;111602;-66
2022/03/08 02:44:36;;;;;;;52.80;28.10;;;;;;;-0.01;62.44;99278.98;106119;1274;95171;-67
2022/03/08 02:47:08;;;;;;;60.40;30.00;;;;;;;0.03;62.57;99282.34;106125;1274;108363;-67
2022/03/08 02:49:37;;;;;;;49.80;28.40;;;;;;;0.07;62.82;99283.30;106111;1274;97920;-69
2022/03/08 02:52:07;;;;;;;54.90;30.40;;;;;;;0.09;62.67;99283.05;106138;1274;97855;-67
2022/03/08 02:54:37;;;;;;;53.40;30.20;;;;;;;0.10;62.77;99280.27;106091;1274;111419;-67
2022/03/08 02:57:06;;;;;;;54.70;28.00;;;;;;;0.10;62.77;99281.80;106160;1273;98420;-69
2022/03/08 02:59:36;;;;;;;51.00;28.10;;;;;;;0.13;62.84;99285.25;106161;1273;107794;-71
2022/03/08 03:02:06;;;;;;;53.30;29.00;;;;;;;0.13;62.76;99281.40;106235;1274;95299;-69
2022/03/08 03:04:35;;;;;;;58.10;28.90;;;;;;;0.12;62.69;99278.45;106197;1273;95242;-67
2022/03/08 03:07:04;;;;;;;54.60;29.60;;;;;;;0.16;62.92;99280.99;106199;1274;110387;-67
2022/03/08 03:09:36;;;;;;;52.20;28.90;;;;;;;0.18;62.88;99281.97;106137;1273;97891;-69
2022/03/08 03:12:08;;;;;;;55.00;28.30;;;;;;;0.20;63.10;99285.05;106145;1274;107445;-67
2022/03/08 03:14:35;;;;;;;58.20;31.80;;;;;;;0.24;63.06;99284.77;106103;1274;97022;-65
2022/03/08 03:17:04;;;;;;;54.30;30.50;;;;;;;0.25;62.92;99285.60;106152;1273;97840;-66
2022/03/08 03:19:33;;;;;;;54.10;29.60;;;;;;;0.26;63.02;99289.23;106097;1274;112041;-66
2022/03/08 03:22:05;;;;;;;54.40;31.00;;;;;;;0.27;63.00;99289.57;106175;1273;95275;-68
2022/03/08 03:24:33;;;;;;;55.20;30.40;;;;;;;0.28;63.00;99293.54;106121;1273;109016;-67
2022/03/08 03:27:05;;;;;;;54.90;31.20;;;;;;;0.27;63.17;99294.45;106134;1273;95626;-69
2022/03/08 03:29:35;;;;;;;58.20;32.00;;;;;;;0.24;63.22;99295.04;106135;1273;97883;-70
2022/03/08 03:32:05;;;;;;;58.40;31.50;;;;;;;0.22;63.21;99296.67;106222;1274;111749;-67
2022/03/08 03:34:33;;;;;;;54.70;30.20;;;;;;;0.18;63.19;99300.98;106070;1274;97877;-66
2022/03/08 03:37:06;;;;;;;54.90;28.60;;;;;;;0.18;63.20;99304.13;105578;1273;670178;-67
2022/03/08 03:39:35;;;;;;;55.70;29.40;;;;;;;0.18;63.21;99305.34;106077;1273;95259;-67
2022/03/08 03:42:06;;;;;;;51.40;28.90;;;;;;;0.20;63.23;99309.14;106088;1273;97889;-67
2022/03/08 03:44:36;;;;;;;48.50;27.10;;;;;;;0.18;63.36;99307.42;106130;1274;110849;-67
2022/03/08 03:47:04;;;;;;;53.00;29.20;;;;;;;0.19;63.39;99307.25;106013;1274;95193;-67
2022/03/08 03:49:32;;;;;;;53.70;28.00;;;;;;;0.19;63.37;99305.31;106101;1274;108443;-68
2022/03/08 03:52:04;;;;;;;59.50;31.20;;;;;;;0.18;63.42;99309.16;106055;1274;97967;-66
2022/03/08 03:54:34;;;;;;;51.30;29.90;;;;;;;0.18;63.46;99311.46;106026;1274;95280;-69
2022/03/08 03:57:03;;;;;;;52.90;30.30;;;;;;;0.15;63.35;99313.27;106074;1274;111575;-67
2022/03/08 03:59:32;;;;;;;54.00;30.00;;;;;;;0.12;63.58;99310.20;106086;1274;97944;-68
2022/03/08 04:02:01;;;;;;;56.90;31.40;;;;;;;0.10;63.62;99308.17;106159;1273;107724;-68
2022/03/08 04:04:31;;;;;;;57.20;32.00;;;;;;;0.05;63.47;99311.78;106127;1274;97993;-68
2022/03/08 04:07:00;;;;;;;53.70;31.60;;;;;;;0.02;63.41;99315.86;106116;1273;95371;-66
2022/03/08 04:09:28;;;;;;;53.00;30.10;;;;;;;0.00;63.51;99315.38;106033;1274;112005;-68
2022/03/08 04:11:59;;;;;;;53.80;30.00;;;;;;;-0.02;63.64;99321.55;106089;1274;97807;-67
2022/03/08 04:14:27;;;;;;;53.30;29.00;;;;;;;-0.03;63.79;99323.65;106082;1274;108548;-67
2022/03/08 04:16:57;;;;;;;53.70;30.50;;;;;;;-0.00;63.79;99325.34;106140;1274;98077;-65
2022/03/08 04:19:27;;;;;;;53.60;30.20;;;;;;;0.02;63.71;99323.36;106074;1274;98445;-67
2022/03/08 04:21:57;;;;;;;53.90;29.30;;;;;;;0.03;63.82;99328.56;106075;1274;112037;-68
2022/03/08 04:24:27;;;;;;;50.40;29.10;;;;;;;0.04;63.88;99329.06;106084;1274;97896;-68
2022/03/08 04:26:56;;;;;;;53.10;29.60;;;;;;;0.05;63.83;99328.34;106109;1274;108178;-67
2022/03/08 04:29:24;;;;;;;51.60;28.40;;;;;;;0.06;63.89;99329.00;105969;1275;97977;-68
2022/03/08 04:31:54;;;;;;;56.90;30.20;;;;;;;0.06;63.97;99332.30;106151;1274;97878;-69
2022/03/08 04:34:26;;;;;;;53.00;29.60;;;;;;;0.07;63.90;99333.70;106139;1274;112039;-67
2022/03/08 04:36:54;;;;;;;58.60;31.40;;;;;;;0.07;64.00;99331.95;106169;1274;95279;-69
2022/03/08 04:39:24;;;;;;;56.00;31.10;;;;;;;0.07;64.02;99333.35;106109;1274;106802;-68
2022/03/08 04:41:53;;;;;;;55.30;31.50;;;;;;;0.06;63.90;99331.97;106089;1274;95687;-68
2022/03/08 04:44:25;;;;;;;51.40;29.60;;;;;;;0.01;63.89;99334.36;106149;1274;97975;-68
2022/03/08 04:46:54;;;;;;;55.40;29.20;;;;;;;-0.02;64.15;99339.50;106121;1274;112312;-67
2022/03/08 04:49:25;;;;;;;51.30;29.40;;;;;;;-0.04;63.98;99346.17;106138;1274;95923;-68
2022/03/08 04:51:54;;;;;;;54.10;30.70;;;;;;;-0.06;64.15;99349.18;105987;1274;107575;-68
2022/03/08 04:54:23;;;;;;;50.10;28.40;;;;;;;-0.04;64.27;99354.02;106118;1274;95252;-69
2022/03/08 04:56:51;;;;;;;50.90;27.80;;;;;;;-0.02;64.13;99356.23;106183;1274;97912;-68
2022/03/08 04:59:24;;;;;;;51.00;29.50;;;;;;;-0.02;64.13;99358.50;106136;1274;111271;-69
2022/03/08 05:01:52;;;;;;;52.00;27.80;;;;;;;-0.01;64.13;99360.40;106077;1274;97871;-68
2022/03/08 05:04:24;;;;;;;49.60;27.50;;;;;;;-0.02;64.30;99361.29;106067;1274;107659;-71
2022/03/08 05:06:52;;;;;;;49.90;26.60;;;;;;;-0.02;64.27;99364.27;106129;1274;97752;-71
2022/03/08 05:09:21;;;;;;;49.30;25.60;;;;;;;-0.02;64.22;99366.88;106144;1274;95292;-70
2022/03/08 05:11:50;;;;;;;47.20;26.60;;;;;;;0.00;64.27;99369.44;106175;1273;111348;-71
2022/03/08 05:14:18;;;;;;;51.10;27.70;;;;;;;-0.01;64.19;99371.73;106155;1273;97890;-71
2022/03/08 05:16:46;;;;;;;49.60;27.70;;;;;;;-0.04;64.27;99369.38;106174;1273;107358;-71
2022/03/08 05:19:14;;;;;;;57.60;28.90;;;;;;;-0.10;64.13;99374.38;106134;1273;97975;-71
2022/03/08 05:21:46;;;;;;;54.00;29.30;;;;;;;-0.12;64.40;99377.39;106101;1273;97936;-71
2022/03/08 05:24:14;;;;;;;53.00;28.80;;;;;;;-0.14;64.18;99376.91;106060;1273;111451;-71
2022/03/08 05:26:42;;;;;;;53.30;29.00;;;;;;;-0.15;64.34;99378.68;106055;1274;97988;-71
2022/03/08 05:29:10;;;;;;;50.10;26.50;;;;;;;-0.16;64.33;99384.98;106015;1273;107748;-72
2022/03/08 05:31:42;;;;;;;56.40;28.90;;;;;;;-0.15;64.37;99389.31;106011;1274;97904;-69
2022/03/08 05:34:10;;;;;;;63.70;31.40;;;;;;;-0.15;64.55;99387.41;106118;1273;95281;-71
2022/03/08 05:36:40;;;;;;;54.30;29.30;;;;;;;-0.17;64.32;99385.70;106013;1273;111450;-71
2022/03/08 05:39:08;;;;;;;54.50;29.90;;;;;;;-0.17;64.35;99385.35;106008;1274;97871;-72
2022/03/08 05:41:37;;;;;;;59.20;28.70;;;;;;;-0.19;64.53;99384.86;106127;1273;107717;-72
2022/03/08 05:44:07;;;;;;;52.50;27.70;;;;;;;-0.18;64.39;99389.21;105921;1274;97071;-70
2022/03/08 05:46:37;;;;;;;51.10;27.40;;;;;;;-0.18;64.51;99389.56;106014;1274;98084;-71
2022/03/08 05:49:05;;;;;;;48.50;26.70;;;;;;;-0.16;64.58;99386.89;106012;1274;112576;-72
2022/03/08 05:51:33;;;;;;;48.80;25.40;;;;;;;-0.13;64.64;99391.19;105955;1274;97846;-71
2022/03/08 05:54:01;;;;;;;48.00;25.40;;;;;;;-0.11;64.60;99386.80;105938;1274;107763;-68
2022/03/08 05:56:29;;;;;;;49.00;25.00;;;;;;;-0.12;64.43;99390.14;105983;1274;95355;-70
2022/03/08 05:58:57;;;;;;;46.80;24.10;;;;;;;-0.12;64.71;99390.65;106044;1273;97937;-70
2022/03/08 06:01:25;;;;;;;44.60;23.70;;;;;;;-0.11;64.67;99395.33;105894;1273;110244;-72
2022/03/08 06:03:54;;;;;;;42.80;23.20;;;;;;;-0.11;64.66;99397.94;105971;1273;95897;-71
2022/03/08 06:06:22;;;;;;;42.30;22.80;;;;;;;-0.07;64.72;99402.20;106019;1274;107517;-68
2022/03/08 06:08:50;;;;;;;45.00;24.10;;;;;;;-0.06;64.68;99403.77;106777;1274;97842;-72
2022/03/08 06:11:20;;;;;;;40.10;20.40;;;;;;;-0.06;64.50;99402.00;107435;1274;95614;-72
2022/03/08 06:13:52;;;;;;;40.30;21.10;;;;;;;-0.07;64.70;99400.83;107419;1274;110895;-71
2022/03/08 06:16:20;;;;;;;40.80;19.60;;;;;;;-0.04;64.57;99406.34;106153;1274;98055;-72
2022/03/08 06:18:48;;;;;;;42.30;20.30;;;;;;;-0.00;64.79;99402.23;106144;1274;107781;-72
2022/03/08 06:21:16;;;;;;;44.90;21.80;;;;;;;0.03;64.89;99401.95;106115;1274;97944;-71
2022/03/08 06:23:44;;;;;;;40.30;20.70;;;;;;;0.09;64.97;99402.73;106845;1274;95624;-70
2022/03/08 06:26:14;;;;;;;39.90;20.10;;;;;;;0.12;64.83;99403.33;106550;1274;111614;-70
2022/03/08 06:28:42;;;;;;;41.70;19.90;;;;;;;0.12;64.74;99403.51;105985;1274;98006;-70
2022/03/08 06:31:10;;;;;;;38.50;20.50;;;;;;;0.14;64.85;99406.77;106069;1274;106729;-71
2022/03/08 06:33:39;;;;;;;39.50;19.10;;;;;;;0.19;64.95;99406.64;107847;1274;95708;-71
2022/03/08 06:36:06;;;;;;;35.60;17.70;;;;;;;0.27;65.11;99405.57;106618;1274;98013;-70
2022/03/08 06:38:34;;;;;;;39.20;18.30;;;;;;;0.35;64.93;99408.70;106116;1274;112243;-71
2022/03/08 06:41:07;;;;;;;36.90;17.30;;;;;;;0.41;65.10;99404.70;106160;1274;95305;-70
2022/03/08 06:43:35;;;;;;;35.20;16.80;;;;;;;0.49;65.05;99410.96;106110;1274;107689;-70
2022/03/08 06:46:03;;;;;;;40.40;18.80;;;;;;;0.51;64.99;99413.34;106027;1274;97945;-70
2022/03/08 06:48:37;;;;;;;31.70;16.00;;;;;;;0.53;65.05;99411.36;106059;1274;97900;-71
2022/03/08 06:51:07;;;;;;;40.20;17.00;;;;;;;0.61;65.17;99413.96;105914;1275;111419;-71
2022/03/08 06:53:35;;;;;;;35.40;15.80;;;;;;;0.68;64.93;99415.33;106056;1274;96557;-70
2022/03/08 06:56:03;;;;;;;34.80;15.80;;;;;;;0.71;65.11;99414.23;106057;1274;107079;-72
2022/03/08 06:58:33;;;;;;;36.60;15.60;;;;;;;0.73;65.10;99420.10;106055;1274;97837;-71
2022/03/08 07:01:01;;;;;;;37.50;16.00;;;;;;;0.82;65.22;99417.77;106101;1274;97838;-69
2022/03/08 07:03:31;;;;;;;31.70;15.00;;;;;;;0.83;65.12;99421.40;106055;1274;111376;-71
2022/03/08 07:06:05;;;;;;;32.60;14.20;;;;;;;0.83;65.11;99420.33;106056;1274;95176;-71
2022/03/08 07:08:33;;;;;;;32.30;13.50;;;;;;;0.92;65.16;99422.39;106035;1274;107810;-70
2022/03/08 07:11:00;;;;;;;31.70;14.00;;;;;;;1.02;65.35;99424.55;106081;1274;95279;-70
2022/03/08 07:13:28;;;;;;;28.90;12.50;;;;;;;1.10;65.21;99427.30;106115;1274;98672;-71
2022/03/08 07:16:01;;;;;;;33.20;13.90;;;;;;;1.15;65.33;99431.35;106170;1274;111384;-73
2022/03/08 07:18:29;;;;;;;28.70;12.10;;;;;;;1.23;65.19;99430.42;106171;1274;97821;-73
2022/03/08 07:21:00;;;;;;;27.80;11.90;;;;;;;1.27;65.47;99431.01;106101;1274;107788;-72
2022/03/08 07:23:32;;;;;;;29.10;12.10;;;;;;;1.29;65.31;99430.95;106068;1274;97958;-71
2022/03/08 07:26:00;;;;;;;29.70;11.30;;;;;;;1.31;65.35;99430.19;105938;1275;95376;-71
2022/03/08 07:28:30;;;;;;;27.80;12.00;;;;;;;1.41;65.50;99431.31;106044;1274;113300;-71
2022/03/08 07:31:04;;;;;;;30.30;13.00;;;;;;;1.51;65.29;99423.35;106029;1274;97862;-69
2022/03/08 07:33:35;;;;;;;28.90;12.70;;;;;;;1.65;65.36;99418.38;106064;1274;107403;-71
2022/03/08 07:36:04;;;;;;;27.30;11.10;;;;;;;1.81;65.36;99415.27;106047;1274;97957;-70
2022/03/08 07:38:36;;;;;;;29.30;11.90;;;;;;;1.99;65.37;99412.80;105993;1274;97986;-70
2022/03/08 07:41:06;;;;;;;27.60;10.10;;;;;;;2.16;65.36;99412.05;106037;1274;112318;-71
2022/03/08 07:43:36;;;;;;;28.70;9.80;;;;;;;2.31;65.54;99418.21;106032;1274;98562;-71
2022/03/08 07:46:07;;;;;;;24.30;9.20;;;;;;;2.45;65.61;99415.98;106085;1274;107724;-71
2022/03/08 07:48:38;;;;;;;23.50;9.60;;;;;;;2.53;65.47;99413.98;106137;1274;95421;-72
2022/03/08 07:51:06;;;;;;;24.70;8.60;;;;;;;2.58;65.49;99416.63;106157;1274;95241;-73
2022/03/08 07:53:34;;;;;;;23.90;8.70;;;;;;;2.58;65.55;99423.12;106165;1274;111277;-75
2022/03/08 07:56:02;;;;;;;25.40;9.80;;;;;;;2.56;65.36;99422.30;106133;1274;97896;-73
2022/03/08 07:58:30;;;;;;;25.70;10.20;;;;;;;2.56;65.41;99422.64;106142;1274;107796;-71
2022/03/08 08:01:00;;;;;;;28.00;11.70;;;;;;;2.52;65.36;99426.47;106097;1274;97840;-70
2022/03/08 08:03:31;;;;;;;28.20;11.60;;;;;;;2.45;65.11;99432.80;106116;1274;97852;-70
2022/03/08 08:06:03;;;;;;;26.20;9.90;;;;;;;2.45;65.09;99435.42;106126;1274;112617;-72
2022/03/08 08:08:31;;;;;;;25.80;10.10;;;;;;;2.46;65.34;99434.88;106155;1274;98019;-71
2022/03/08 08:10:59;;;;;;;26.00;9.90;;;;;;;2.44;65.58;99435.84;106058;1274;107842;-70
2022/03/08 08:13:29;;;;;;;26.30;10.10;;;;;;;2.40;65.06;99439.13;106024;1274;98591;-71
2022/03/08 08:15:57;;;;;;;21.30;8.90;;;;;;;2.41;65.47;99438.20;106048;1274;95159;-71
2022/03/08 08:18:25;;;;;;;26.50;9.10;;;;;;;2.46;65.51;99439.77;106031;1274;110644;-73
2022/03/08 08:20:53;;;;;;;24.70;8.70;;;;;;;2.53;65.06;99439.38;106107;1274;97874;-71
2022/03/08 08:23:24;;;;;;;21.90;7.70;;;;;;;2.58;65.33;99440.61;106065;1274;108025;-70
2022/03/08 08:25:54;;;;;;;26.60;8.70;;;;;;;2.62;65.39;99439.42;106060;1274;95392;-72
2022/03/08 08:28:22;;;;;;;21.20;8.40;;;;;;;2.62;64.83;99437.84;106045;1274;97944;-71
2022/03/08 08:30:50;;;;;;;24.80;10.20;;;;;;;2.67;65.34;99438.20;106053;1274;111406;-71
2022/03/08 08:33:18;;;;;;;23.30;8.40;;;;;;;2.73;65.15;99439.41;106052;1274;97986;-69
2022/03/08 08:35:50;;;;;;;21.30;8.40;;;;;;;2.79;64.96;99439.91;106108;1274;107663;-70
2022/03/08 08:38:17;;;;;;;21.00;7.90;;;;;;;2.81;65.15;99442.45;105954;1275;97977;-70
2022/03/08 08:40:45;;;;;;;21.30;8.30;;;;;;;2.84;65.04;99447.45;106072;1274;97881;-68
2022/03/08 08:43:13;;;;;;;22.70;8.70;;;;;;;2.87;65.06;99446.64;106053;1274;111031;-69
2022/03/08 08:45:43;;;;;;;26.90;9.80;;;;;;;2.89;65.17;99449.02;106062;1274;97880;-70
2022/03/08 08:48:11;;;;;;;20.00;8.80;;;;;;;2.92;65.23;99446.27;106110;1274;107732;-69
2022/03/08 08:50:39;;;;;;;21.80;8.90;;;;;;;2.97;64.99;99443.11;106102;1274;97999;-71
2022/03/08 08:53:07;;;;;;;24.90;9.80;;;;;;;3.00;65.07;99445.48;106148;1274;97963;-69
2022/03/08 08:55:38;;;;;;;26.30;9.80;;;;;;;3.02;65.09;99448.71;106138;1274;111365;-71
2022/03/08 08:58:08;;;;;;;24.10;9.00;;;;;;;3.03;64.68;99442.05;106007;1275;95781;-73
2022/03/08 09:00:36;;;;;;;24.00;9.60;;;;;;;3.06;64.90;99447.37;106021;1274;107688;-67
2022/03/08 09:03:14;;;;;;;23.80;9.10;;;;;;;3.15;65.00;99446.34;105925;1275;98027;-72
2022/03/08 09:05:50;;;;;;;22.90;8.90;;;;;;;3.34;65.01;99447.21;106029;1274;97980;-71
2022/03/08 09:08:24;;;;;;;24.20;8.50;;;;;;;3.50;65.03;99445.60;106007;1274;110152;-71
2022/03/08 09:11:00;;;;;;;19.90;7.70;;;;;;;3.55;64.47;99446.48;106053;1274;97860;-70
2022/03/08 09:13:30;;;;;;;20.80;8.10;;;;;;;3.44;64.57;99451.05;106001;1274;107783;-71
2022/03/08 09:15:58;;;;;;;18.80;7.30;;;;;;;3.36;64.50;99453.84;105948;1274;97967;-71
2022/03/08 09:18:26;;;;;;;21.20;7.50;;;;;;;3.25;64.59;99455.46;106055;1274;97974;-68
2022/03/08 09:20:54;;;;;;;18.50;7.40;;;;;;;3.18;64.49;99454.63;106032;1274;111352;-71
2022/03/08 09:23:25;;;;;;;18.80;7.60;;;;;;;3.18;64.53;99450.97;105966;1274;97834;-70
2022/03/08 09:25:53;;;;;;;21.80;7.60;;;;;;;3.28;64.59;99446.77;106099;1274;108121;-71
2022/03/08 09:28:20;;;;;;;21.10;7.80;;;;;;;3.39;64.52;99445.15;106144;1274;97884;-71
2022/03/08 09:30:49;;;;;;;21.20;7.90;;;;;;;3.40;64.60;99444.56;106159;1274;97861;-71
2022/03/08 09:33:19;;;;;;;20.40;9.10;;;;;;;3.44;64.33;99443.89;106009;1275;111565;-72
2022/03/08 09:35:47;;;;;;;20.00;7.50;;;;;;;3.47;64.54;99441.88;106077;1274;97771;-72
2022/03/08 09:38:15;;;;;;;14.50;6.00;;;;;;;3.45;64.27;99440.71;106041;1274;108546;-74
2022/03/08 09:40:45;;;;;;;14.20;6.10;;;;;;;3.41;64.24;99442.95;106035;1274;95262;-72
2022/03/08 09:43:16;;;;;;;18.40;6.30;;;;;;;3.37;64.04;99447.12;106068;1274;97881;-70
2022/03/08 09:45:46;;;;;;;17.20;6.70;;;;;;;3.34;64.00;99445.31;106118;1274;111429;-71
2022/03/08 09:48:16;;;;;;;15.30;6.20;;;;;;;3.26;63.74;99447.89;106078;1273;97899;-72
2022/03/08 09:50:48;;;;;;;17.30;6.30;;;;;;;3.18;63.62;99443.63;105990;1274;109789;-72
2022/03/08 09:53:20;;;;;;;19.40;6.60;;;;;;;3.12;63.94;99443.10;106117;1274;97983;-73
2022/03/08 09:55:48;;;;;;;18.40;6.70;;;;;;;3.11;63.40;99443.84;106088;1274;95173;-74
2022/03/08 09:58:20;;;;;;;18.60;6.50;;;;;;;3.10;63.67;99442.99;106236;1273;111415;-73
2022/03/08 10:00:48;;;;;;;19.40;7.50;;;;;;;3.07;63.57;99444.16;106142;1273;95817;-74
2022/03/08 10:03:16;;;;;;;21.10;8.10;;;;;;;3.04;63.27;99448.52;106112;1274;107789;-71
2022/03/08 10:05:46;;;;;;;21.90;8.00;;;;;;;3.02;63.54;99446.13;106170;1273;97866;-73
2022/03/08 10:08:21;;;;;;;16.10;6.30;;;;;;;3.01;63.05;99444.58;106075;1274;97979;-72
2022/03/08 10:10:53;;;;;;;16.60;6.60;;;;;;;2.99;62.93;99447.61;106116;1273;109229;-71
2022/03/08 10:13:26;;;;;;;14.40;5.70;;;;;;;3.00;63.40;99448.30;106227;1273;97976;-71
2022/03/08 10:16:23;;;;;;;17.90;6.70;;;;;;;3.03;63.21;99442.58;106173;1273;107722;-70
2022/03/08 10:18:59;;;;;;;21.20;8.10;;;;;;;3.06;63.24;99441.75;106195;1273;97881;-69
2022/03/08 10:21:47;;;;;;;23.90;7.90;;;;;;;3.09;63.50;99439.55;106282;1273;95891;-70
2022/03/08 10:24:25;;;;;;;19.40;7.50;;;;;;;3.08;63.14;99434.50;106156;1273;111585;-68
2022/03/08 10:27:09;;;;;;;18.80;7.60;;;;;;;3.09;63.27;99428.84;106411;1273;97895;-72
2022/03/08 10:29:39;;;;;;;19.60;7.20;;;;;;;3.13;63.52;99427.66;106123;1273;107911;-71
2022/03/08 10:32:18;;;;;;;20.80;7.30;;;;;;;3.12;62.50;99430.49;106141;1273;97975;-70
2022/03/08 10:34:58;;;;;;;21.60;8.40;;;;;;;3.06;62.57;99427.37;106095;1273;97852;-72
2022/03/08 10:37:36;;;;;;;18.90;7.60;;;;;;;3.08;62.11;99424.35;106226;1271;111344;-71
2022/03/08 10:40:09;;;;;;;17.70;6.70;;;;;;;3.14;62.67;99421.13;106001;1274;97869;-70
2022/03/08 10:42:40;;;;;;;18.50;7.30;;;;;;;3.24;62.66;99422.38;106008;1273;107781;-70
2022/03/08 10:45:08;;;;;;;18.10;7.30;;;;;;;3.30;62.67;99414.95;106047;1274;97908;-70
2022/03/08 10:47:43;;;;;;;18.50;7.70;;;;;;;3.30;62.91;99415.65;106088;1274;97980;-71
2022/03/08 10:50:17;;;;;;;19.90;7.80;;;;;;;3.35;62.61;99418.29;106149;1274;111370;-70
2022/03/08 10:52:49;;;;;;;19.60;6.90;;;;;;;3.43;62.57;99417.83;106092;1273;96422;-70
2022/03/08 10:55:25;;;;;;;20.30;7.40;;;;;;;3.48;62.47;99416.70;106041;1273;107643;-70
2022/03/08 10:57:59;;;;;;;21.10;8.10;;;;;;;3.51;62.31;99416.29;106114;1273;97886;-72
2022/03/08 11:00:30;;;;;;;16.30;6.00;;;;;;;3.68;62.49;99409.48;106103;1273;99108;-71
2022/03/08 11:03:05;;;;;;;16.80;6.50;;;;;;;3.85;62.69;99406.57;105994;1274;111513;-70
2022/03/08 11:05:46;;;;;;;16.00;6.20;;;;;;;4.03;62.73;99403.39;106071;1274;97953;-70
2022/03/08 11:08:17;;;;;;;20.80;6.20;;;;;;;4.08;62.54;99402.84;106074;1273;107829;-68
2022/03/08 11:10:47;;;;;;;21.10;7.10;;;;;;;4.13;62.37;99406.31;106143;1273;97861;-70
2022/03/08 11:13:19;;;;;;;26.10;9.40;;;;;;;4.20;62.36;99406.05;106163;1273;97683;-70
2022/03/08 11:15:51;;;;;;;23.00;8.00;;;;;;;4.24;62.47;99406.57;106122;1273;110128;-69
2022/03/08 11:18:19;;;;;;;27.70;8.50;;;;;;;4.26;62.14;99404.92;106067;1274;98446;-69
2022/03/08 11:20:47;;;;;;;22.30;7.30;;;;;;;4.22;62.03;99405.63;106108;1273;107822;-69
2022/03/08 11:23:16;;;;;;;20.70;7.60;;;;;;;4.18;61.91;99407.86;106128;1273;95325;-70
2022/03/08 11:25:49;;;;;;;18.30;6.70;;;;;;;4.22;62.04;99403.31;106063;1273;97049;-69
2022/03/08 11:28:20;;;;;;;17.40;5.90;;;;;;;4.28;62.10;99406.42;106183;1273;111173;-70